Terminal Aerodrome Forecast
Issued by NWS Cleveland, OH

Home | Current Version | Previous Version | Text Only | Print | Product List | Glossary On
Versions: 1 2 3 4 5 6 7 8 9 10 11 12 13 14 15 16 17 18 19 20 21 22 23 24 25
000
FTUS41 KCLE 250100 AAA
TAFTOL
TAF AMD
KTOL 250124Z 2501/2524 27020G32KT 6SM -SHRA BR OVC010
     FM250330 27020G30KT 4SM -SHRA OVC007
     FM251000 25012G22KT P6SM -SHSN SCT007 OVC012
     FM251400 26012G24KT P6SM -SHSN OVC024=

USA.gov is the U.S. government's official web portal to all federal, state and local government web resources and services.